sensor_id;sensor_type;location;lat;lon;timestamp;P1;durP1;ratioP1;P2;durP2;ratioP2
10442;SDS011;5269;51.146;16.986;2022-12-24T00:01:02;11.80;;;8.70;;
10442;SDS011;5269;51.146;16.986;2022-12-24T00:03:31;15.50;;;9.13;;
10442;SDS011;5269;51.146;16.986;2022-12-24T00:05:58;11.98;;;8.95;;
10442;SDS011;5269;51.146;16.986;2022-12-24T00:08:29;12.38;;;8.68;;
10442;SDS011;5269;51.146;16.986;2022-12-24T00:10:57;11.45;;;8.30;;
10442;SDS011;5269;51.146;16.986;2022-12-24T00:13:24;14.43;;;9.98;;
10442;SDS011;5269;51.146;16.986;2022-12-24T00:15:53;12.52;;;9.20;;
10442;SDS011;5269;51.146;16.986;2022-12-24T00:18:20;12.63;;;9.13;;
10442;SDS011;5269;51.146;16.986;2022-12-24T00:20:47;11.48;;;8.77;;
10442;SDS011;5269;51.146;16.986;2022-12-24T00:23:16;12.07;;;8.95;;
10442;SDS011;5269;51.146;16.986;2022-12-24T00:25:43;12.38;;;9.43;;
10442;SDS011;5269;51.146;16.986;2022-12-24T00:28:11;10.60;;;8.30;;
10442;SDS011;5269;51.146;16.986;2022-12-24T00:30:39;11.13;;;8.40;;
10442;SDS011;5269;51.146;16.986;2022-12-24T00:33:07;10.50;;;7.75;;
10442;SDS011;5269;51.146;16.986;2022-12-24T00:35:35;9.77;;;7.57;;
10442;SDS011;5269;51.146;16.986;2022-12-24T00:38:02;10.35;;;7.75;;
10442;SDS011;5269;51.146;16.986;2022-12-24T00:40:29;10.00;;;7.70;;
10442;SDS011;5269;51.146;16.986;2022-12-24T00:42:57;12.07;;;8.20;;
10442;SDS011;5269;51.146;16.986;2022-12-24T00:45:24;10.23;;;7.63;;
10442;SDS011;5269;51.146;16.986;2022-12-24T00:47:52;10.38;;;8.10;;
10442;SDS011;5269;51.146;16.986;2022-12-24T00:50:20;9.82;;;8.02;;
10442;SDS011;5269;51.146;16.986;2022-12-24T00:52:47;9.15;;;7.90;;
10442;SDS011;5269;51.146;16.986;2022-12-24T00:55:14;10.88;;;7.32;;
10442;SDS011;5269;51.146;16.986;2022-12-24T00:57:41;10.05;;;7.50;;
10442;SDS011;5269;51.146;16.986;2022-12-24T01:00:08;9.52;;;7.57;;
10442;SDS011;5269;51.146;16.986;2022-12-24T01:02:35;9.82;;;7.60;;
10442;SDS011;5269;51.146;16.986;2022-12-24T01:05:02;9.95;;;7.20;;
10442;SDS011;5269;51.146;16.986;2022-12-24T01:07:38;11.13;;;7.43;;
10442;SDS011;5269;51.146;16.986;2022-12-24T01:10:08;10.57;;;7.80;;
10442;SDS011;5269;51.146;16.986;2022-12-24T01:12:35;10.43;;;8.00;;
10442;SDS011;5269;51.146;16.986;2022-12-24T01:15:03;12.00;;;8.30;;
10442;SDS011;5269;51.146;16.986;2022-12-24T01:17:30;10.02;;;8.05;;
10442;SDS011;5269;51.146;16.986;2022-12-24T01:19:57;10.40;;;8.02;;
10442;SDS011;5269;51.146;16.986;2022-12-24T01:22:24;11.13;;;7.63;;
10442;SDS011;5269;51.146;16.986;2022-12-24T01:24:53;12.55;;;8.15;;
10442;SDS011;5269;51.146;16.986;2022-12-24T01:27:20;11.38;;;7.40;;
10442;SDS011;5269;51.146;16.986;2022-12-24T01:29:47;9.88;;;7.82;;
10442;SDS011;5269;51.146;16.986;2022-12-24T01:32:13;11.02;;;8.02;;
10442;SDS011;5269;51.146;16.986;2022-12-24T01:34:40;11.45;;;7.85;;
10442;SDS011;5269;51.146;16.986;2022-12-24T01:37:07;8.82;;;7.22;;
10442;SDS011;5269;51.146;16.986;2022-12-24T01:39:34;9.57;;;7.68;;
10442;SDS011;5269;51.146;16.986;2022-12-24T01:42:08;9.20;;;7.35;;
10442;SDS011;5269;51.146;16.986;2022-12-24T01:48:03;9.25;;;6.72;;
10442;SDS011;5269;51.146;16.986;2022-12-24T01:50:37;9.73;;;6.75;;
10442;SDS011;5269;51.146;16.986;2022-12-24T01:53:04;9.40;;;7.50;;
10442;SDS011;5269;51.146;16.986;2022-12-24T01:55:35;7.88;;;6.43;;
10442;SDS011;5269;51.146;16.986;2022-12-24T01:58:03;8.43;;;6.47;;
10442;SDS011;5269;51.146;16.986;2022-12-24T02:00:32;7.82;;;6.35;;
10442;SDS011;5269;51.146;16.986;2022-12-24T02:02:59;11.50;;;6.95;;
10442;SDS011;5269;51.146;16.986;2022-12-24T02:05:27;9.40;;;6.85;;
10442;SDS011;5269;51.146;16.986;2022-12-24T02:07:59;6.57;;;5.88;;
10442;SDS011;5269;51.146;16.986;2022-12-24T02:10:29;8.23;;;5.97;;
10442;SDS011;5269;51.146;16.986;2022-12-24T02:12:56;7.28;;;6.20;;
10442;SDS011;5269;51.146;16.986;2022-12-24T02:15:26;7.25;;;5.95;;
10442;SDS011;5269;51.146;16.986;2022-12-24T02:18:01;8.00;;;6.20;;
10442;SDS011;5269;51.146;16.986;2022-12-24T02:20:48;8.73;;;6.20;;
10442;SDS011;5269;51.146;16.986;2022-12-24T02:23:47;8.45;;;6.07;;
10442;SDS011;5269;51.146;16.986;2022-12-24T02:26:42;7.72;;;5.65;;
10442;SDS011;5269;51.146;16.986;2022-12-24T02:32:27;7.63;;;6.15;;
10442;SDS011;5269;51.146;16.986;2022-12-24T02:35:07;6.18;;;5.38;;
10442;SDS011;5269;51.146;16.986;2022-12-24T02:37:38;8.90;;;5.93;;
10442;SDS011;5269;51.146;16.986;2022-12-24T02:40:09;10.82;;;6.22;;
10442;SDS011;5269;51.146;16.986;2022-12-24T02:42:40;6.82;;;5.93;;
10442;SDS011;5269;51.146;16.986;2022-12-24T02:45:10;7.20;;;5.70;;
10442;SDS011;5269;51.146;16.986;2022-12-24T02:47:41;9.18;;;6.38;;
10442;SDS011;5269;51.146;16.986;2022-12-24T02:50:09;7.72;;;5.88;;
10442;SDS011;5269;51.146;16.986;2022-12-24T02:52:39;7.30;;;5.90;;
10442;SDS011;5269;51.146;16.986;2022-12-24T02:55:08;7.72;;;6.00;;
10442;SDS011;5269;51.146;16.986;2022-12-24T02:57:43;5.90;;;5.18;;
10442;SDS011;5269;51.146;16.986;2022-12-24T03:00:23;6.95;;;5.63;;
10442;SDS011;5269;51.146;16.986;2022-12-24T03:02:56;6.55;;;5.50;;
10442;SDS011;5269;51.146;16.986;2022-12-24T03:05:36;7.05;;;5.43;;
10442;SDS011;5269;51.146;16.986;2022-12-24T03:08:12;6.60;;;5.40;;
10442;SDS011;5269;51.146;16.986;2022-12-24T03:10:47;7.53;;;6.00;;
10442;SDS011;5269;51.146;16.986;2022-12-24T03:13:20;7.70;;;5.97;;
10442;SDS011;5269;51.146;16.986;2022-12-24T03:15:48;6.35;;;5.68;;
10442;SDS011;5269;51.146;16.986;2022-12-24T03:18:17;6.63;;;5.57;;
10442;SDS011;5269;51.146;16.986;2022-12-24T03:20:49;5.85;;;5.07;;
10442;SDS011;5269;51.146;16.986;2022-12-24T03:23:21;8.45;;;6.20;;
10442;SDS011;5269;51.146;16.986;2022-12-24T03:25:48;6.90;;;5.70;;
10442;SDS011;5269;51.146;16.986;2022-12-24T03:28:17;5.90;;;5.30;;
10442;SDS011;5269;51.146;16.986;2022-12-24T03:30:45;10.02;;;6.10;;
10442;SDS011;5269;51.146;16.986;2022-12-24T03:33:13;7.72;;;5.43;;
10442;SDS011;5269;51.146;16.986;2022-12-24T03:35:42;8.32;;;6.05;;
10442;SDS011;5269;51.146;16.986;2022-12-24T03:38:09;9.18;;;6.05;;
10442;SDS011;5269;51.146;16.986;2022-12-24T03:40:36;6.95;;;5.63;;
10442;SDS011;5269;51.146;16.986;2022-12-24T03:43:03;6.22;;;5.55;;
10442;SDS011;5269;51.146;16.986;2022-12-24T03:45:30;7.88;;;6.45;;
10442;SDS011;5269;51.146;16.986;2022-12-24T03:47:57;7.50;;;6.05;;
10442;SDS011;5269;51.146;16.986;2022-12-24T03:50:24;9.18;;;6.78;;
10442;SDS011;5269;51.146;16.986;2022-12-24T03:52:52;8.10;;;6.22;;
10442;SDS011;5269;51.146;16.986;2022-12-24T03:55:19;7.43;;;6.43;;
10442;SDS011;5269;51.146;16.986;2022-12-24T03:57:46;7.80;;;6.47;;
10442;SDS011;5269;51.146;16.986;2022-12-24T04:00:14;8.18;;;6.45;;
10442;SDS011;5269;51.146;16.986;2022-12-24T04:02:42;8.73;;;6.57;;
10442;SDS011;5269;51.146;16.986;2022-12-24T04:05:11;9.05;;;6.13;;
10442;SDS011;5269;51.146;16.986;2022-12-24T04:07:39;6.03;;;4.82;;
10442;SDS011;5269;51.146;16.986;2022-12-24T04:10:08;5.93;;;4.20;;
10442;SDS011;5269;51.146;16.986;2022-12-24T04:12:35;4.35;;;3.80;;
10442;SDS011;5269;51.146;16.986;2022-12-24T04:15:03;3.90;;;3.45;;
10442;SDS011;5269;51.146;16.986;2022-12-24T04:17:31;4.90;;;4.07;;
10442;SDS011;5269;51.146;16.986;2022-12-24T04:19:57;5.72;;;3.65;;
10442;SDS011;5269;51.146;16.986;2022-12-24T04:22:24;3.88;;;3.13;;
10442;SDS011;5269;51.146;16.986;2022-12-24T04:24:51;5.13;;;3.72;;
10442;SDS011;5269;51.146;16.986;2022-12-24T04:27:20;3.78;;;3.20;;
10442;SDS011;5269;51.146;16.986;2022-12-24T04:29:46;3.95;;;3.58;;
10442;SDS011;5269;51.146;16.986;2022-12-24T04:32:14;4.03;;;3.58;;
10442;SDS011;5269;51.146;16.986;2022-12-24T04:34:41;6.10;;;4.00;;
10442;SDS011;5269;51.146;16.986;2022-12-24T04:37:08;4.85;;;3.95;;
10442;SDS011;5269;51.146;16.986;2022-12-24T04:39:34;4.85;;;3.72;;
10442;SDS011;5269;51.146;16.986;2022-12-24T04:42:01;4.78;;;3.72;;
10442;SDS011;5269;51.146;16.986;2022-12-24T04:44:30;6.53;;;3.70;;
10442;SDS011;5269;51.146;16.986;2022-12-24T04:46:57;4.97;;;3.72;;
10442;SDS011;5269;51.146;16.986;2022-12-24T04:49:23;5.47;;;3.78;;
10442;SDS011;5269;51.146;16.986;2022-12-24T04:51:50;6.88;;;4.15;;
10442;SDS011;5269;51.146;16.986;2022-12-24T04:54:17;4.82;;;3.40;;
10442;SDS011;5269;51.146;16.986;2022-12-24T04:56:45;5.32;;;3.58;;
10442;SDS011;5269;51.146;16.986;2022-12-24T04:59:11;4.03;;;3.63;;
10442;SDS011;5269;51.146;16.986;2022-12-24T05:01:40;5.43;;;3.70;;
10442;SDS011;5269;51.146;16.986;2022-12-24T05:04:07;5.18;;;3.30;;
10442;SDS011;5269;51.146;16.986;2022-12-24T05:06:35;4.60;;;3.60;;
10442;SDS011;5269;51.146;16.986;2022-12-24T05:09:02;4.55;;;3.33;;
10442;SDS011;5269;51.146;16.986;2022-12-24T05:11:29;4.43;;;3.25;;
10442;SDS011;5269;51.146;16.986;2022-12-24T05:13:56;5.93;;;3.83;;
10442;SDS011;5269;51.146;16.986;2022-12-24T05:16:23;5.85;;;3.25;;
10442;SDS011;5269;51.146;16.986;2022-12-24T05:18:52;4.70;;;3.53;;
10442;SDS011;5269;51.146;16.986;2022-12-24T05:21:20;6.03;;;3.45;;
10442;SDS011;5269;51.146;16.986;2022-12-24T05:23:49;4.03;;;3.00;;
10442;SDS011;5269;51.146;16.986;2022-12-24T05:26:35;6.97;;;3.05;;
10442;SDS011;5269;51.146;16.986;2022-12-24T05:29:05;4.40;;;2.80;;
10442;SDS011;5269;51.146;16.986;2022-12-24T05:31:32;3.72;;;2.95;;
10442;SDS011;5269;51.146;16.986;2022-12-24T05:34:01;3.92;;;3.03;;
10442;SDS011;5269;51.146;16.986;2022-12-24T05:36:29;4.30;;;3.20;;
10442;SDS011;5269;51.146;16.986;2022-12-24T05:38:56;3.95;;;2.90;;
10442;SDS011;5269;51.146;16.986;2022-12-24T05:41:23;5.40;;;3.00;;
10442;SDS011;5269;51.146;16.986;2022-12-24T05:43:50;5.45;;;2.65;;
10442;SDS011;5269;51.146;16.986;2022-12-24T05:46:18;4.25;;;3.08;;
10442;SDS011;5269;51.146;16.986;2022-12-24T05:48:46;6.32;;;3.00;;
10442;SDS011;5269;51.146;16.986;2022-12-24T05:51:14;4.22;;;2.90;;
10442;SDS011;5269;51.146;16.986;2022-12-24T05:53:43;5.70;;;3.10;;
10442;SDS011;5269;51.146;16.986;2022-12-24T05:56:11;5.38;;;2.75;;
10442;SDS011;5269;51.146;16.986;2022-12-24T05:58:46;9.95;;;3.70;;
10442;SDS011;5269;51.146;16.986;2022-12-24T06:01:13;7.85;;;3.70;;
10442;SDS011;5269;51.146;16.986;2022-12-24T06:03:41;6.72;;;3.78;;
10442;SDS011;5269;51.146;16.986;2022-12-24T06:06:17;5.80;;;3.17;;
10442;SDS011;5269;51.146;16.986;2022-12-24T06:08:48;5.20;;;2.88;;
10442;SDS011;5269;51.146;16.986;2022-12-24T06:11:17;6.57;;;3.50;;
10442;SDS011;5269;51.146;16.986;2022-12-24T06:13:45;6.13;;;3.45;;
10442;SDS011;5269;51.146;16.986;2022-12-24T06:16:16;5.78;;;3.38;;
10442;SDS011;5269;51.146;16.986;2022-12-24T06:18:52;5.60;;;3.10;;
10442;SDS011;5269;51.146;16.986;2022-12-24T06:21:26;4.68;;;3.05;;
10442;SDS011;5269;51.146;16.986;2022-12-24T06:23:56;3.67;;;2.95;;
10442;SDS011;5269;51.146;16.986;2022-12-24T06:26:26;5.07;;;3.53;;
10442;SDS011;5269;51.146;16.986;2022-12-24T06:29:00;4.78;;;3.50;;
10442;SDS011;5269;51.146;16.986;2022-12-24T06:31:41;5.30;;;3.47;;
10442;SDS011;5269;51.146;16.986;2022-12-24T06:34:10;4.10;;;3.20;;
10442;SDS011;5269;51.146;16.986;2022-12-24T06:36:38;9.13;;;3.85;;
10442;SDS011;5269;51.146;16.986;2022-12-24T06:39:05;6.25;;;3.30;;
10442;SDS011;5269;51.146;16.986;2022-12-24T06:41:32;4.70;;;3.22;;
10442;SDS011;5269;51.146;16.986;2022-12-24T06:43:59;8.25;;;3.13;;
10442;SDS011;5269;51.146;16.986;2022-12-24T06:46:26;6.43;;;3.75;;
10442;SDS011;5269;51.146;16.986;2022-12-24T06:48:53;8.57;;;3.80;;
10442;SDS011;5269;51.146;16.986;2022-12-24T06:51:20;7.18;;;4.10;;
10442;SDS011;5269;51.146;16.986;2022-12-24T06:53:48;8.57;;;3.60;;
10442;SDS011;5269;51.146;16.986;2022-12-24T06:56:15;4.57;;;3.15;;
10442;SDS011;5269;51.146;16.986;2022-12-24T06:58:43;6.15;;;3.50;;
10442;SDS011;5269;51.146;16.986;2022-12-24T07:01:11;6.28;;;3.70;;
10442;SDS011;5269;51.146;16.986;2022-12-24T07:03:39;4.13;;;3.45;;
10442;SDS011;5269;51.146;16.986;2022-12-24T07:06:07;5.47;;;3.55;;
10442;SDS011;5269;51.146;16.986;2022-12-24T07:08:40;5.00;;;3.03;;
10442;SDS011;5269;51.146;16.986;2022-12-24T07:11:08;3.67;;;3.20;;
10442;SDS011;5269;51.146;16.986;2022-12-24T07:13:35;4.70;;;3.05;;
10442;SDS011;5269;51.146;16.986;2022-12-24T07:16:02;4.20;;;3.30;;
10442;SDS011;5269;51.146;16.986;2022-12-24T07:18:30;3.95;;;3.15;;
10442;SDS011;5269;51.146;16.986;2022-12-24T07:20:58;3.40;;;3.00;;
10442;SDS011;5269;51.146;16.986;2022-12-24T07:23:24;5.22;;;3.35;;
10442;SDS011;5269;51.146;16.986;2022-12-24T07:25:51;3.47;;;3.17;;
10442;SDS011;5269;51.146;16.986;2022-12-24T07:28:20;3.53;;;3.22;;
10442;SDS011;5269;51.146;16.986;2022-12-24T07:30:47;4.70;;;3.03;;
10442;SDS011;5269;51.146;16.986;2022-12-24T07:33:14;3.08;;;2.80;;
10442;SDS011;5269;51.146;16.986;2022-12-24T07:35:41;4.78;;;4.28;;
10442;SDS011;5269;51.146;16.986;2022-12-24T07:38:08;6.22;;;4.47;;
10442;SDS011;5269;51.146;16.986;2022-12-24T07:40:35;5.63;;;4.38;;
10442;SDS011;5269;51.146;16.986;2022-12-24T07:43:01;4.85;;;4.28;;
10442;SDS011;5269;51.146;16.986;2022-12-24T07:45:30;5.47;;;4.68;;
10442;SDS011;5269;51.146;16.986;2022-12-24T07:47:57;6.10;;;4.40;;
10442;SDS011;5269;51.146;16.986;2022-12-24T07:50:24;6.88;;;5.00;;
10442;SDS011;5269;51.146;16.986;2022-12-24T07:52:51;5.85;;;5.25;;
10442;SDS011;5269;51.146;16.986;2022-12-24T07:55:18;7.03;;;5.75;;
10442;SDS011;5269;51.146;16.986;2022-12-24T07:57:47;5.68;;;4.72;;
10442;SDS011;5269;51.146;16.986;2022-12-24T08:00:14;6.75;;;6.07;;
10442;SDS011;5269;51.146;16.986;2022-12-24T08:02:43;7.30;;;5.65;;
10442;SDS011;5269;51.146;16.986;2022-12-24T08:05:10;6.47;;;5.78;;
10442;SDS011;5269;51.146;16.986;2022-12-24T08:07:37;6.78;;;5.75;;
10442;SDS011;5269;51.146;16.986;2022-12-24T08:10:06;8.57;;;6.95;;
10442;SDS011;5269;51.146;16.986;2022-12-24T08:12:34;7.50;;;6.72;;
10442;SDS011;5269;51.146;16.986;2022-12-24T08:15:01;9.48;;;7.78;;
10442;SDS011;5269;51.146;16.986;2022-12-24T08:17:28;9.30;;;7.47;;
10442;SDS011;5269;51.146;16.986;2022-12-24T08:19:56;7.68;;;6.97;;
10442;SDS011;5269;51.146;16.986;2022-12-24T08:22:23;8.75;;;7.60;;
10442;SDS011;5269;51.146;16.986;2022-12-24T08:24:51;8.30;;;7.43;;
10442;SDS011;5269;51.146;16.986;2022-12-24T08:27:18;9.55;;;7.32;;
10442;SDS011;5269;51.146;16.986;2022-12-24T08:29:45;9.18;;;7.90;;
10442;SDS011;5269;51.146;16.986;2022-12-24T08:32:12;10.75;;;7.93;;
10442;SDS011;5269;51.146;16.986;2022-12-24T08:34:42;9.57;;;8.48;;
10442;SDS011;5269;51.146;16.986;2022-12-24T08:37:12;10.00;;;7.88;;
10442;SDS011;5269;51.146;16.986;2022-12-24T08:39:53;9.82;;;8.15;;
10442;SDS011;5269;51.146;16.986;2022-12-24T08:42:20;11.75;;;9.50;;
10442;SDS011;5269;51.146;16.986;2022-12-24T08:44:47;9.13;;;8.10;;
10442;SDS011;5269;51.146;16.986;2022-12-24T08:47:14;11.43;;;8.82;;
10442;SDS011;5269;51.146;16.986;2022-12-24T08:49:41;11.52;;;9.07;;
10442;SDS011;5269;51.146;16.986;2022-12-24T08:52:11;9.98;;;8.32;;
10442;SDS011;5269;51.146;16.986;2022-12-24T08:54:38;8.32;;;6.50;;
10442;SDS011;5269;51.146;16.986;2022-12-24T08:57:05;10.00;;;8.27;;
10442;SDS011;5269;51.146;16.986;2022-12-24T08:59:34;9.25;;;7.70;;
10442;SDS011;5269;51.146;16.986;2022-12-24T09:02:01;8.60;;;7.63;;
10442;SDS011;5269;51.146;16.986;2022-12-24T09:04:28;8.52;;;7.63;;
10442;SDS011;5269;51.146;16.986;2022-12-24T09:06:55;8.93;;;8.02;;
10442;SDS011;5269;51.146;16.986;2022-12-24T09:09:26;10.95;;;8.60;;
10442;SDS011;5269;51.146;16.986;2022-12-24T09:11:54;10.43;;;9.23;;
10442;SDS011;5269;51.146;16.986;2022-12-24T09:14:21;10.13;;;9.13;;
10442;SDS011;5269;51.146;16.986;2022-12-24T09:16:48;9.48;;;8.20;;
10442;SDS011;5269;51.146;16.986;2022-12-24T09:19:16;10.20;;;8.00;;
10442;SDS011;5269;51.146;16.986;2022-12-24T09:21:55;9.95;;;7.75;;
10442;SDS011;5269;51.146;16.986;2022-12-24T09:24:23;9.15;;;8.18;;
10442;SDS011;5269;51.146;16.986;2022-12-24T09:26:57;9.02;;;7.95;;
10442;SDS011;5269;51.146;16.986;2022-12-24T09:29:29;9.63;;;8.00;;
10442;SDS011;5269;51.146;16.986;2022-12-24T09:31:56;7.90;;;7.10;;
10442;SDS011;5269;51.146;16.986;2022-12-24T09:34:24;7.72;;;6.78;;
10442;SDS011;5269;51.146;16.986;2022-12-24T09:36:55;9.23;;;7.60;;
10442;SDS011;5269;51.146;16.986;2022-12-24T09:39:35;8.02;;;6.60;;
10442;SDS011;5269;51.146;16.986;2022-12-24T09:42:10;8.52;;;7.10;;
10442;SDS011;5269;51.146;16.986;2022-12-24T09:44:52;8.00;;;7.00;;
10442;SDS011;5269;51.146;16.986;2022-12-24T09:47:28;8.65;;;7.30;;
10442;SDS011;5269;51.146;16.986;2022-12-24T09:50:02;7.85;;;6.32;;
10442;SDS011;5269;51.146;16.986;2022-12-24T09:52:44;6.85;;;5.70;;
10442;SDS011;5269;51.146;16.986;2022-12-24T09:55:24;9.77;;;6.95;;
10442;SDS011;5269;51.146;16.986;2022-12-24T09:57:55;7.95;;;7.05;;
10442;SDS011;5269;51.146;16.986;2022-12-24T10:00:28;8.23;;;5.75;;
10442;SDS011;5269;51.146;16.986;2022-12-24T10:03:16;7.18;;;6.40;;
10442;SDS011;5269;51.146;16.986;2022-12-24T10:06:04;7.53;;;6.80;;
10442;SDS011;5269;51.146;16.986;2022-12-24T10:08:58;7.32;;;6.57;;
10442;SDS011;5269;51.146;16.986;2022-12-24T10:11:39;7.40;;;5.80;;
10442;SDS011;5269;51.146;16.986;2022-12-24T10:14:15;8.60;;;6.45;;
10442;SDS011;5269;51.146;16.986;2022-12-24T10:16:52;7.57;;;6.28;;
10442;SDS011;5269;51.146;16.986;2022-12-24T10:19:42;7.70;;;5.88;;
10442;SDS011;5269;51.146;16.986;2022-12-24T10:22:19;8.23;;;7.05;;
10442;SDS011;5269;51.146;16.986;2022-12-24T10:24:52;6.90;;;6.07;;
10442;SDS011;5269;51.146;16.986;2022-12-24T10:27:28;7.78;;;6.97;;
10442;SDS011;5269;51.146;16.986;2022-12-24T10:30:05;6.45;;;5.72;;
10442;SDS011;5269;51.146;16.986;2022-12-24T10:32:41;7.03;;;6.18;;
10442;SDS011;5269;51.146;16.986;2022-12-24T10:35:16;6.60;;;5.68;;
10442;SDS011;5269;51.146;16.986;2022-12-24T10:37:49;7.32;;;6.50;;
10442;SDS011;5269;51.146;16.986;2022-12-24T10:40:37;9.38;;;6.32;;
10442;SDS011;5269;51.146;16.986;2022-12-24T10:43:34;7.30;;;5.88;;
10442;SDS011;5269;51.146;16.986;2022-12-24T10:46:05;7.50;;;6.15;;
10442;SDS011;5269;51.146;16.986;2022-12-24T10:48:42;6.53;;;5.57;;
10442;SDS011;5269;51.146;16.986;2022-12-24T10:51:12;6.90;;;5.97;;
10442;SDS011;5269;51.146;16.986;2022-12-24T10:53:45;6.68;;;5.97;;
10442;SDS011;5269;51.146;16.986;2022-12-24T10:56:31;6.47;;;5.78;;
10442;SDS011;5269;51.146;16.986;2022-12-24T10:59:23;5.63;;;4.65;;
10442;SDS011;5269;51.146;16.986;2022-12-24T11:01:58;6.20;;;5.40;;
10442;SDS011;5269;51.146;16.986;2022-12-24T11:04:50;6.05;;;5.22;;
10442;SDS011;5269;51.146;16.986;2022-12-24T11:07:33;8.70;;;5.72;;
10442;SDS011;5269;51.146;16.986;2022-12-24T11:10:05;6.57;;;5.88;;
10442;SDS011;5269;51.146;16.986;2022-12-24T11:12:34;7.32;;;6.18;;
10442;SDS011;5269;51.146;16.986;2022-12-24T11:15:06;7.20;;;6.00;;
10442;SDS011;5269;51.146;16.986;2022-12-24T11:17:41;6.82;;;5.78;;
10442;SDS011;5269;51.146;16.986;2022-12-24T11:20:17;7.95;;;5.88;;
10442;SDS011;5269;51.146;16.986;2022-12-24T11:22:52;6.35;;;5.32;;
10442;SDS011;5269;51.146;16.986;2022-12-24T11:25:23;7.18;;;5.35;;
10442;SDS011;5269;51.146;16.986;2022-12-24T11:27:53;6.88;;;5.55;;
10442;SDS011;5269;51.146;16.986;2022-12-24T11:30:30;5.50;;;4.93;;
10442;SDS011;5269;51.146;16.986;2022-12-24T11:33:20;9.00;;;5.85;;
10442;SDS011;5269;51.146;16.986;2022-12-24T11:35:55;8.07;;;5.90;;
10442;SDS011;5269;51.146;16.986;2022-12-24T11:38:26;8.13;;;5.95;;
10442;SDS011;5269;51.146;16.986;2022-12-24T11:40:59;7.50;;;6.20;;
10442;SDS011;5269;51.146;16.986;2022-12-24T11:43:36;7.03;;;6.30;;
10442;SDS011;5269;51.146;16.986;2022-12-24T11:46:15;11.05;;;6.38;;
10442;SDS011;5269;51.146;16.986;2022-12-24T11:48:48;8.00;;;6.30;;
10442;SDS011;5269;51.146;16.986;2022-12-24T11:51:31;8.00;;;5.20;;
10442;SDS011;5269;51.146;16.986;2022-12-24T11:54:01;7.78;;;6.18;;
10442;SDS011;5269;51.146;16.986;2022-12-24T11:56:35;7.30;;;5.93;;
10442;SDS011;5269;51.146;16.986;2022-12-24T11:59:13;6.15;;;5.20;;
10442;SDS011;5269;51.146;16.986;2022-12-24T12:01:53;6.75;;;5.30;;
10442;SDS011;5269;51.146;16.986;2022-12-24T12:04:31;9.45;;;6.20;;
10442;SDS011;5269;51.146;16.986;2022-12-24T12:07:29;10.80;;;5.75;;
10442;SDS011;5269;51.146;16.986;2022-12-24T12:10:04;8.10;;;5.18;;
10442;SDS011;5269;51.146;16.986;2022-12-24T12:12:37;7.68;;;5.18;;
10442;SDS011;5269;51.146;16.986;2022-12-24T12:15:10;9.98;;;5.07;;
10442;SDS011;5269;51.146;16.986;2022-12-24T12:17:42;8.27;;;4.40;;
10442;SDS011;5269;51.146;16.986;2022-12-24T12:20:15;6.47;;;3.60;;
10442;SDS011;5269;51.146;16.986;2022-12-24T12:23:04;5.72;;;3.53;;
10442;SDS011;5269;51.146;16.986;2022-12-24T12:25:42;6.00;;;3.50;;
10442;SDS011;5269;51.146;16.986;2022-12-24T12:28:14;10.70;;;3.55;;
10442;SDS011;5269;51.146;16.986;2022-12-24T12:30:47;6.72;;;3.58;;
10442;SDS011;5269;51.146;16.986;2022-12-24T12:33:27;6.43;;;3.45;;
10442;SDS011;5269;51.146;16.986;2022-12-24T12:36:02;6.20;;;3.45;;
10442;SDS011;5269;51.146;16.986;2022-12-24T12:38:32;8.15;;;3.45;;
10442;SDS011;5269;51.146;16.986;2022-12-24T12:41:13;7.90;;;3.53;;
10442;SDS011;5269;51.146;16.986;2022-12-24T12:43:56;8.50;;;3.00;;
10442;SDS011;5269;51.146;16.986;2022-12-24T12:46:40;7.93;;;3.33;;
10442;SDS011;5269;51.146;16.986;2022-12-24T12:49:36;8.27;;;4.28;;
10442;SDS011;5269;51.146;16.986;2022-12-24T12:52:13;5.35;;;3.25;;
10442;SDS011;5269;51.146;16.986;2022-12-24T12:55:03;7.20;;;3.95;;
10442;SDS011;5269;51.146;16.986;2022-12-24T12:57:43;11.20;;;4.57;;
10442;SDS011;5269;51.146;16.986;2022-12-24T13:00:14;6.07;;;3.63;;
10442;SDS011;5269;51.146;16.986;2022-12-24T13:05:41;6.13;;;3.33;;
10442;SDS011;5269;51.146;16.986;2022-12-24T13:08:42;8.20;;;3.55;;
10442;SDS011;5269;51.146;16.986;2022-12-24T13:11:30;7.28;;;3.28;;
10442;SDS011;5269;51.146;16.986;2022-12-24T13:14:16;7.47;;;3.40;;
10442;SDS011;5269;51.146;16.986;2022-12-24T13:17:02;7.65;;;3.75;;
10442;SDS011;5269;51.146;16.986;2022-12-24T13:20:09;9.65;;;3.40;;
10442;SDS011;5269;51.146;16.986;2022-12-24T13:22:52;4.00;;;2.65;;
10442;SDS011;5269;51.146;16.986;2022-12-24T13:25:23;7.18;;;3.30;;
10442;SDS011;5269;51.146;16.986;2022-12-24T13:27:54;6.75;;;3.45;;
10442;SDS011;5269;51.146;16.986;2022-12-24T13:30:31;6.13;;;3.47;;
10442;SDS011;5269;51.146;16.986;2022-12-24T13:33:00;8.95;;;3.50;;
10442;SDS011;5269;51.146;16.986;2022-12-24T13:35:31;6.50;;;3.05;;
10442;SDS011;5269;51.146;16.986;2022-12-24T13:44:23;7.72;;;3.50;;
10442;SDS011;5269;51.146;16.986;2022-12-24T13:46:57;9.90;;;3.63;;
10442;SDS011;5269;51.146;16.986;2022-12-24T13:49:31;9.77;;;3.30;;
10442;SDS011;5269;51.146;16.986;2022-12-24T13:54:46;8.63;;;3.40;;
10442;SDS011;5269;51.146;16.986;2022-12-24T13:57:28;8.07;;;3.30;;
10442;SDS011;5269;51.146;16.986;2022-12-24T13:59:58;5.00;;;2.72;;
10442;SDS011;5269;51.146;16.986;2022-12-24T14:02:31;6.40;;;2.58;;
10442;SDS011;5269;51.146;16.986;2022-12-24T14:05:02;5.43;;;2.70;;
10442;SDS011;5269;51.146;16.986;2022-12-24T14:07:32;7.15;;;2.83;;
10442;SDS011;5269;51.146;16.986;2022-12-24T14:10:02;6.57;;;2.83;;
10442;SDS011;5269;51.146;16.986;2022-12-24T14:12:47;7.53;;;2.85;;
10442;SDS011;5269;51.146;16.986;2022-12-24T14:18:15;7.25;;;3.13;;
10442;SDS011;5269;51.146;16.986;2022-12-24T14:20:49;6.72;;;2.50;;
10442;SDS011;5269;51.146;16.986;2022-12-24T14:23:22;5.60;;;2.88;;
10442;SDS011;5269;51.146;16.986;2022-12-24T14:26:00;4.63;;;2.58;;
10442;SDS011;5269;51.146;16.986;2022-12-24T14:28:31;8.38;;;3.03;;
10442;SDS011;5269;51.146;16.986;2022-12-24T14:31:03;8.65;;;2.92;;
10442;SDS011;5269;51.146;16.986;2022-12-24T14:33:31;5.40;;;2.80;;
10442;SDS011;5269;51.146;16.986;2022-12-24T14:36:00;6.72;;;2.85;;
10442;SDS011;5269;51.146;16.986;2022-12-24T14:38:43;10.20;;;2.80;;
10442;SDS011;5269;51.146;16.986;2022-12-24T14:41:15;5.90;;;2.97;;
10442;SDS011;5269;51.146;16.986;2022-12-24T14:43:52;5.55;;;2.95;;
10442;SDS011;5269;51.146;16.986;2022-12-24T14:46:30;7.45;;;2.97;;
10442;SDS011;5269;51.146;16.986;2022-12-24T14:49:03;7.47;;;3.05;;
10442;SDS011;5269;51.146;16.986;2022-12-24T14:51:38;5.13;;;2.67;;
10442;SDS011;5269;51.146;16.986;2022-12-24T14:54:23;7.20;;;3.00;;
10442;SDS011;5269;51.146;16.986;2022-12-24T14:59:47;8.13;;;2.80;;
10442;SDS011;5269;51.146;16.986;2022-12-24T15:02:23;5.32;;;2.80;;
10442;SDS011;5269;51.146;16.986;2022-12-24T15:05:04;5.93;;;2.75;;
10442;SDS011;5269;51.146;16.986;2022-12-24T15:07:34;6.25;;;2.90;;
10442;SDS011;5269;51.146;16.986;2022-12-24T15:10:05;6.32;;;2.80;;
10442;SDS011;5269;51.146;16.986;2022-12-24T15:12:45;5.20;;;2.80;;
10442;SDS011;5269;51.146;16.986;2022-12-24T15:15:13;8.45;;;2.83;;
10442;SDS011;5269;51.146;16.986;2022-12-24T15:17:41;4.65;;;2.67;;
10442;SDS011;5269;51.146;16.986;2022-12-24T15:20:10;5.65;;;2.60;;
10442;SDS011;5269;51.146;16.986;2022-12-24T15:22:39;6.65;;;2.80;;
10442;SDS011;5269;51.146;16.986;2022-12-24T15:25:17;6.80;;;2.75;;
10442;SDS011;5269;51.146;16.986;2022-12-24T15:27:46;6.55;;;2.75;;
10442;SDS011;5269;51.146;16.986;2022-12-24T15:30:14;4.35;;;2.55;;
10442;SDS011;5269;51.146;16.986;2022-12-24T15:32:43;10.27;;;3.00;;
10442;SDS011;5269;51.146;16.986;2022-12-24T15:35:29;5.55;;;2.65;;
10442;SDS011;5269;51.146;16.986;2022-12-24T15:37:58;6.72;;;3.05;;